Greenup, Kentucky
Current Conditions -  °F | °C
As of 5:15 PM on Saturday 25 Oct 2014 (Local Time) from KDWU Reporting Station
Clear Clear  
Wind Chill: 70°   Ceiling: Unl
Heat Index: 70°   Visibility: 10mi
Dew Point: 54°   Wind: 7mph
Humidity: 56%   Direction: 260°W
Pressure: 29.89"   Gusts: NA
Location:  38.57°N, 82.83°W
Report Text: KDWU 252115Z AUTO 26006KT 10SM CLR 21/12 A2989 RMK AO1
Loading
Personal Weather Stations






























Interactive Weather Map
Tropical Storm Tracking
New forecast layout! Learn more

10-Day Weather Forecast

Advertisements
Track Severe Weather on mobile